createdAt,value
2018-08-09T00:00:01.352Z,99795.19
2018-08-09T00:00:32.508Z,99791.56
2018-08-09T00:01:03.639Z,99795.06
2018-08-09T00:01:34.771Z,99791.56
2018-08-09T00:02:05.966Z,99796.77
2018-08-09T00:02:37.157Z,99790.94
2018-08-09T00:03:08.334Z,99790.69
2018-08-09T00:03:39.555Z,99788.87
2018-08-09T00:04:10.714Z,99788.49
2018-08-09T00:04:41.897Z,99788.13
2018-08-09T00:05:13.048Z,99789.95
2018-08-09T00:05:44.243Z,99796.23
2018-08-09T00:06:15.379Z,99798.27
2018-08-09T00:06:46.556Z,99790.91
2018-08-09T00:07:17.720Z,99793.66
2018-08-09T00:07:48.910Z,99790.78
2018-08-09T00:08:20.046Z,99797.44
2018-08-09T00:08:51.278Z,99790.78
2018-08-09T00:09:22.515Z,99791.37
2018-08-09T00:09:53.711Z,99796.69
2018-08-09T00:10:24.903Z,99787.75
2018-08-09T00:10:56.079Z,99791.24
2018-08-09T00:11:27.279Z,99792.95
2018-08-09T00:11:58.404Z,99788.86
2018-08-09T00:12:29.639Z,99792.85
2018-08-09T00:13:00.834Z,99793.31
2018-08-09T00:13:31.946Z,99801.67
2018-08-09T00:14:03.119Z,99795.86
2018-08-09T00:14:34.255Z,99798.52
2018-08-09T00:15:05.379Z,99803.50
2018-08-09T00:15:36.492Z,99799.02
2018-08-09T00:16:07.668Z,99808.83
2018-08-09T00:16:38.854Z,99805.79
2018-08-09T00:17:10.001Z,99800.93
2018-08-09T00:17:41.165Z,99804.46
2018-08-09T00:18:12.426Z,99804.84
2018-08-09T00:18:43.579Z,99807.50
2018-08-09T00:19:14.695Z,99807.83
2018-08-09T00:19:45.868Z,99808.20
2018-08-09T00:20:17.040Z,99805.17
2018-08-09T00:20:48.249Z,99807.83
2018-08-09T00:21:19.387Z,99808.20
2018-08-09T00:21:50.559Z,99804.59
2018-08-09T00:22:21.808Z,99803.26
2018-08-09T00:22:52.941Z,99802.88
2018-08-09T00:23:24.136Z,99808.83
2018-08-09T00:23:55.364Z,99804.09
2018-08-09T00:24:26.469Z,99802.38
2018-08-09T00:24:57.639Z,99806.25
2018-08-09T00:25:28.820Z,99806.75
2018-08-09T00:26:00.064Z,99812.82
2018-08-09T00:26:31.198Z,99802.17
2018-08-09T00:27:02.374Z,99798.27
2018-08-09T00:27:33.505Z,99802.38
2018-08-09T00:28:04.717Z,99811.33
2018-08-09T00:28:35.843Z,99805.17
2018-08-09T00:29:07.012Z,99811.45
2018-08-09T00:29:38.145Z,99800.92
2018-08-09T00:30:09.325Z,99798.52
2018-08-09T00:30:40.507Z,99806.75
2018-08-09T00:31:11.775Z,99804.84
2018-08-09T00:31:43.007Z,99804.84
2018-08-09T00:32:14.197Z,99803.75
2018-08-09T00:32:45.384Z,99805.92
2018-08-09T00:33:16.557Z,99810.16
2018-08-09T00:33:47.677Z,99803.26
2018-08-09T00:34:18.857Z,99802.30
2018-08-09T00:34:50.099Z,99809.20
2018-08-09T00:35:21.338Z,99809.45
2018-08-09T00:35:52.576Z,99810.20
2018-08-09T00:36:23.716Z,99811.88
2018-08-09T00:36:54.846Z,99811.78
2018-08-09T00:37:25.966Z,99813.95
2018-08-09T00:37:57.088Z,99810.45
2018-08-09T00:38:28.208Z,99807.88
2018-08-09T00:38:59.335Z,99816.61
2018-08-09T00:39:30.499Z,99812.03
2018-08-09T00:40:01.617Z,99815.06
2018-08-09T00:40:32.792Z,99815.31
2018-08-09T00:41:03.927Z,99812.03
2018-08-09T00:41:35.052Z,99809.27
2018-08-09T00:42:06.294Z,99809.12
2018-08-09T00:42:37.587Z,99806.33
2018-08-09T00:43:08.768Z,99805.50
2018-08-09T00:43:39.909Z,99808.28
2018-08-09T00:44:11.118Z,99805.38
2018-08-09T00:44:42.354Z,99800.91
2018-08-09T00:45:13.537Z,99801.88
2018-08-09T00:45:44.676Z,99804.88
2018-08-09T00:46:15.870Z,99802.34
2018-08-09T00:46:47.062Z,99807.53
2018-08-09T00:47:18.187Z,99801.38
2018-08-09T00:47:49.373Z,99803.30
2018-08-09T00:48:20.554Z,99801.84
2018-08-09T00:48:51.731Z,99804.04
2018-08-09T00:49:22.994Z,99796.77
2018-08-09T00:49:54.228Z,99801.88
2018-08-09T00:50:25.416Z,99800.79
2018-08-09T00:50:56.605Z,99797.79
2018-08-09T00:51:27.729Z,99804.20
2018-08-09T00:51:58.906Z,99801.41
2018-08-09T00:52:30.068Z,99804.10
2018-08-09T00:53:01.237Z,99797.07
2018-08-09T00:53:32.477Z,99801.16
2018-08-09T00:54:03.612Z,99799.83
2018-08-09T00:54:34.739Z,99798.50
2018-08-09T00:55:06.035Z,99799.95
2018-08-09T00:55:37.185Z,99799.58
2018-08-09T00:56:08.394Z,99794.01
2018-08-09T00:56:39.578Z,99797.88
2018-08-09T00:57:10.708Z,99795.95
2018-08-09T00:57:41.859Z,99792.92
2018-08-09T00:58:13.082Z,99794.13
2018-08-09T00:58:44.333Z,99795.13
2018-08-09T00:59:15.622Z,99796.08
2018-08-09T00:59:46.820Z,99794.38
2018-08-09T01:00:17.998Z,99801.41
2018-08-09T01:00:49.132Z,99794.38
2018-08-09T01:01:20.313Z,99797.54
2018-08-09T01:01:51.484Z,99793.30
2018-08-09T01:02:22.664Z,99798.62
2018-08-09T01:02:53.839Z,99796.55
2018-08-09T01:03:25.051Z,99793.77
2018-08-09T01:03:56.233Z,99791.59
2018-08-09T01:04:27.382Z,99798.72
2018-08-09T01:04:58.519Z,99794.84
2018-08-09T01:05:29.655Z,99796.92
2018-08-09T01:06:00.821Z,99797.17
2018-08-09T01:06:31.966Z,99794.97
2018-08-09T01:07:03.136Z,99797.41
2018-08-09T01:07:34.269Z,99796.20
2018-08-09T01:08:05.439Z,99792.09
2018-08-09T01:08:36.568Z,99792.92
2018-08-09T01:09:07.755Z,99789.80
2018-08-09T01:09:38.931Z,99794.75
2018-08-09T01:10:10.091Z,99789.42
2018-08-09T01:10:41.272Z,99789.89
2018-08-09T01:11:12.448Z,99788.22
2018-08-09T01:11:43.631Z,99788.09
2018-08-09T01:12:14.772Z,99789.42
2018-08-09T01:12:45.919Z,99784.47
2018-08-09T01:13:17.089Z,99787.84
2018-08-09T01:13:48.271Z,99783.98
2018-08-09T01:14:19.453Z,99785.89
2018-08-09T01:14:50.671Z,99785.43
2018-08-09T01:15:21.870Z,99784.81
2018-08-09T01:15:53.004Z,99786.64
2018-08-09T01:16:24.184Z,99790.63
2018-08-09T01:16:55.366Z,99787.97
2018-08-09T01:17:26.592Z,99784.81
2018-08-09T01:17:57.766Z,99785.80
2018-08-09T01:18:28.999Z,99784.10
2018-08-09T01:19:00.176Z,99789.64
2018-08-09T01:19:31.310Z,99788.69
2018-08-09T01:20:02.486Z,99790.48
2018-08-09T01:20:33.630Z,99794.47
2018-08-09T01:21:04.777Z,99793.11
2018-08-09T01:21:36.061Z,99792.61
2018-08-09T01:22:07.220Z,99787.53
2018-08-09T01:22:38.452Z,99794.19
2018-08-09T01:23:09.622Z,99792.85
2018-08-09T01:23:40.766Z,99795.02
2018-08-09T01:24:12.002Z,99796.88
2018-08-09T01:24:43.136Z,99798.47
2018-08-09T01:25:14.319Z,99797.13
2018-08-09T01:25:45.440Z,99797.72
2018-08-09T01:26:16.569Z,99793.48
2018-08-09T01:26:47.683Z,99801.84
2018-08-09T01:27:18.811Z,99800.13
2018-08-09T01:27:50.089Z,99800.13
2018-08-09T01:28:21.282Z,99804.13
2018-08-09T01:28:52.432Z,99809.08
2018-08-09T01:29:23.554Z,99806.79
2018-08-09T01:29:54.833Z,99810.66
2018-08-09T01:30:26.046Z,99802.92
2018-08-09T01:30:57.237Z,99805.13
2018-08-09T01:31:28.364Z,99805.74
2018-08-09T01:32:00.337Z,99809.37
2018-08-09T01:32:31.497Z,99809.83
2018-08-09T01:33:02.687Z,99803.79
2018-08-09T01:33:33.868Z,99813.20
2018-08-09T01:34:05.079Z,99806.20
2018-08-09T01:34:36.258Z,99811.63
2018-08-09T01:35:07.440Z,99809.95
2018-08-09T01:35:38.622Z,99807.75
2018-08-09T01:36:09.815Z,99808.13
2018-08-09T01:36:41.024Z,99802.42
2018-08-09T01:37:12.265Z,99807.38
2018-08-09T01:37:43.460Z,99808.20
2018-08-09T01:38:14.654Z,99810.63
2018-08-09T01:38:45.785Z,99805.05
2018-08-09T01:39:16.942Z,99808.75
2018-08-09T01:39:48.121Z,99811.03
2018-08-09T01:40:19.237Z,99808.66
2018-08-09T01:40:50.458Z,99814.81
2018-08-09T01:41:21.640Z,99812.77
2018-08-09T01:41:52.898Z,99812.39
2018-08-09T01:42:24.028Z,99812.97
2018-08-09T01:42:55.205Z,99818.05
2018-08-09T01:43:26.379Z,99818.87
2018-08-09T01:43:57.511Z,99810.81
2018-08-09T01:44:28.775Z,99815.27
2018-08-09T01:44:59.900Z,99817.45
2018-08-09T01:45:31.031Z,99811.77
2018-08-09T01:46:02.261Z,99817.55
2018-08-09T01:46:33.432Z,99816.71
2018-08-09T01:47:04.545Z,99817.92
2018-08-09T01:47:35.736Z,99812.97
2018-08-09T01:48:06.912Z,99815.05
2018-08-09T01:48:38.053Z,99815.64
2018-08-09T01:49:09.225Z,99814.68
2018-08-09T01:49:41.398Z,99816.84
2018-08-09T01:50:12.581Z,99817.34
2018-08-09T01:50:43.712Z,99821.45
2018-08-09T01:51:14.937Z,99816.08
2018-08-09T01:51:46.129Z,99817.86
2018-08-09T01:52:17.312Z,99819.69
2018-08-09T01:52:48.502Z,99816.39
2018-08-09T01:53:19.697Z,99818.44
2018-08-09T01:53:50.822Z,99818.23
2018-08-09T01:54:21.942Z,99816.33
2018-08-09T01:54:53.113Z,99820.77
2018-08-09T01:55:24.350Z,99817.66
2018-08-09T01:55:55.479Z,99814.00
2018-08-09T01:56:26.723Z,99817.04
2018-08-09T01:56:57.975Z,99814.38
2018-08-09T01:57:29.123Z,99813.66
2018-08-09T01:58:00.307Z,99810.02
2018-08-09T01:58:31.473Z,99812.33
2018-08-09T01:59:02.649Z,99809.17
2018-08-09T01:59:33.901Z,99814.38
2018-08-09T02:00:05.093Z,99807.73
2018-08-09T02:00:36.344Z,99812.21
2018-08-09T02:01:07.524Z,99814.88
2018-08-09T02:01:38.647Z,99809.30
2018-08-09T02:02:09.816Z,99813.41
2018-08-09T02:02:40.984Z,99811.20
2018-08-09T02:03:12.151Z,99810.00
2018-08-09T02:03:43.282Z,99808.17
2018-08-09T02:04:14.493Z,99809.13
2018-08-09T02:04:45.784Z,99809.38
2018-08-09T02:05:16.982Z,99783.53
2018-08-09T02:05:48.158Z,99806.34
2018-08-09T02:06:19.300Z,99807.09
2018-08-09T02:06:50.439Z,99810.20
2018-08-09T02:07:21.681Z,99805.96
2018-08-09T02:07:52.881Z,99803.54
2018-08-09T02:08:23.997Z,99811.52
2018-08-09T02:08:55.208Z,99811.14
2018-08-09T02:09:26.332Z,99803.75
2018-08-09T02:09:57.508Z,99803.03
2018-08-09T02:10:28.712Z,99807.22
2018-08-09T02:10:59.831Z,99802.52
2018-08-09T02:11:30.953Z,99806.50
2018-08-09T02:12:02.145Z,99807.22
2018-08-09T02:12:33.257Z,99806.34
2018-08-09T02:13:04.450Z,99809.05
2018-08-09T02:13:35.730Z,99806.64
2018-08-09T02:14:06.961Z,99803.41
2018-08-09T02:14:38.093Z,99809.67
2018-08-09T02:15:09.237Z,99803.48
2018-08-09T02:15:40.357Z,99806.77
2018-08-09T02:16:11.476Z,99809.51
2018-08-09T02:16:42.596Z,99809.16
2018-08-09T02:17:13.778Z,99810.13
2018-08-09T02:17:44.898Z,99806.71
2018-08-09T02:18:16.086Z,99806.71
2018-08-09T02:18:47.212Z,99811.28
2018-08-09T02:19:18.432Z,99804.38
2018-08-09T02:19:49.614Z,99810.42
2018-08-09T02:20:20.810Z,99812.70
2018-08-09T02:20:51.936Z,99807.59
2018-08-09T02:21:24.022Z,99814.61
2018-08-09T02:21:55.155Z,99813.02
2018-08-09T02:22:26.281Z,99814.67
2018-08-09T02:22:57.461Z,99818.37
2018-08-09T02:23:28.755Z,99814.67
2018-08-09T02:24:00.010Z,99818.52
2018-08-09T02:24:31.177Z,99822.58
2018-08-09T02:25:02.965Z,99820.30
2018-08-09T02:25:34.104Z,99819.34
2018-08-09T02:26:05.276Z,99569.35
2018-08-09T02:26:36.517Z,99821.52
2018-08-09T02:27:07.664Z,99824.55
2018-08-09T02:27:38.788Z,99818.77
2018-08-09T02:28:09.904Z,99813.66
2018-08-09T02:28:41.083Z,99824.28
2018-08-09T02:29:12.273Z,99822.23
2018-08-09T02:29:43.453Z,99818.45
2018-08-09T02:30:14.634Z,99825.67
2018-08-09T02:30:45.806Z,99823.02
2018-08-09T02:31:16.990Z,99822.06
2018-08-09T02:31:48.125Z,99824.26
2018-08-09T02:32:19.265Z,99819.78
2018-08-09T02:32:50.438Z,99823.62
2018-08-09T02:33:21.627Z,99815.39
2018-08-09T02:33:52.830Z,99820.44
2018-08-09T02:34:24.006Z,99819.31
2018-08-09T02:34:55.127Z,99823.90
2018-08-09T02:35:26.285Z,99823.90
2018-08-09T02:35:57.470Z,99824.36
2018-08-09T02:36:28.667Z,99824.67
2018-08-09T02:36:59.868Z,99823.57
2018-08-09T02:37:30.995Z,99821.86
2018-08-09T02:38:02.107Z,99827.06
2018-08-09T02:38:33.252Z,99822.24
2018-08-09T02:39:04.434Z,99822.62
2018-08-09T02:39:35.650Z,99824.33
2018-08-09T02:40:06.782Z,99824.67
2018-08-09T02:40:37.926Z,99833.13
2018-08-09T02:41:09.131Z,99829.41
2018-08-09T02:41:40.493Z,99828.66
2018-08-09T02:42:11.674Z,99824.78
2018-08-09T02:42:42.878Z,99825.27
2018-08-09T02:43:14.068Z,99823.77
2018-08-09T02:43:45.215Z,99827.29
2018-08-09T02:44:16.401Z,99829.83
2018-08-09T02:44:47.528Z,99829.64
2018-08-09T02:45:18.652Z,99828.66
2018-08-09T02:45:49.844Z,99829.30
2018-08-09T02:46:21.013Z,99831.12
2018-08-09T02:46:52.274Z,99826.87
2018-08-09T02:47:23.457Z,99825.66
2018-08-09T02:47:54.628Z,99831.54
2018-08-09T02:48:25.813Z,99829.68
2018-08-09T02:48:57.024Z,99831.58
2018-08-09T02:49:28.147Z,99837.84
2018-08-09T02:49:59.318Z,99838.91
2018-08-09T02:50:30.443Z,99838.80
2018-08-09T02:51:01.561Z,99833.14
2018-08-09T02:51:32.849Z,99839.29
2018-08-09T02:52:04.101Z,99838.80
2018-08-09T02:52:35.271Z,99839.40
2018-08-09T02:53:06.446Z,99844.22
2018-08-09T02:53:37.572Z,99845.55
2018-08-09T02:54:08.679Z,99849.53
2018-08-09T02:54:39.857Z,99844.71
2018-08-09T02:55:11.113Z,99852.68
2018-08-09T02:55:42.289Z,99852.68
2018-08-09T02:56:13.536Z,99850.97
2018-08-09T02:56:44.674Z,99851.81
2018-08-09T02:57:15.865Z,99854.58
2018-08-09T02:57:47.168Z,99854.12
2018-08-09T02:58:18.433Z,99855.91
2018-08-09T02:58:49.682Z,99854.58
2018-08-09T02:59:20.816Z,99851.20
2018-08-09T02:59:51.943Z,99852.15
2018-08-09T03:00:23.178Z,99853.47
2018-08-09T03:00:54.389Z,99857.08
2018-08-09T03:01:25.571Z,99853.09
2018-08-09T03:01:56.710Z,99848.36
2018-08-09T03:02:27.970Z,99854.27
2018-08-09T03:02:59.172Z,99854.84
2018-08-09T03:03:30.357Z,99860.27
2018-08-09T03:04:01.525Z,99856.36
2018-08-09T03:04:32.663Z,99854.69
2018-08-09T03:05:03.849Z,99854.69
2018-08-09T03:05:35.025Z,99857.11
2018-08-09T03:06:06.181Z,99854.46
2018-08-09T03:06:37.359Z,99854.08
2018-08-09T03:07:08.493Z,99852.98
2018-08-09T03:07:39.671Z,99857.91
2018-08-09T03:08:10.832Z,99855.74
2018-08-09T03:08:42.010Z,99852.33
2018-08-09T03:09:13.197Z,99858.29
2018-08-09T03:09:44.324Z,99855.03
2018-08-09T03:10:15.452Z,99859.31
2018-08-09T03:10:46.642Z,99856.17
2018-08-09T03:11:17.835Z,99848.95
2018-08-09T03:11:48.947Z,99854.88
2018-08-09T03:12:20.076Z,99854.80
2018-08-09T03:12:51.207Z,99855.91
2018-08-09T03:13:22.379Z,99855.53
2018-08-09T03:13:53.570Z,99855.64
2018-08-09T03:14:24.804Z,99854.99
2018-08-09T03:14:56.054Z,99850.06
2018-08-09T03:15:27.225Z,99851.02
2018-08-09T03:15:58.433Z,99853.78
2018-08-09T03:16:29.668Z,99851.39
2018-08-09T03:17:00.796Z,99851.39
2018-08-09T03:17:32.020Z,99851.39
2018-08-09T03:18:03.207Z,99852.60
2018-08-09T03:18:34.385Z,99854.80
2018-08-09T03:19:05.532Z,99850.22
2018-08-09T03:19:36.647Z,99857.23
2018-08-09T03:20:07.825Z,99853.25
2018-08-09T03:20:39.025Z,99853.73
2018-08-09T03:21:10.162Z,99859.62
2018-08-09T03:21:41.339Z,99854.42
2018-08-09T03:22:12.486Z,99854.42
2018-08-09T03:22:43.671Z,99852.72
2018-08-09T03:23:14.851Z,99858.41
2018-08-09T03:23:46.024Z,99860.11
2018-08-09T03:24:17.269Z,99857.72
2018-08-09T03:24:48.446Z,99861.59
2018-08-09T03:25:19.564Z,99861.02
2018-08-09T03:25:50.794Z,99859.70
2018-08-09T03:26:21.981Z,99860.42
2018-08-09T03:26:53.169Z,99861.75
2018-08-09T03:27:24.296Z,99860.05
2018-08-09T03:27:55.468Z,99862.13
2018-08-09T03:28:26.710Z,99864.59
2018-08-09T03:28:57.841Z,99863.72
2018-08-09T03:29:29.066Z,99864.94
2018-08-09T03:30:00.261Z,99858.79
2018-08-09T03:30:31.390Z,99858.91
2018-08-09T03:31:02.564Z,99865.42
2018-08-09T03:31:33.700Z,99861.25
2018-08-09T03:32:04.884Z,99863.03
2018-08-09T03:32:36.026Z,99854.31
2018-08-09T03:33:07.143Z,99859.62
2018-08-09T03:33:38.268Z,99860.95
2018-08-09T03:34:09.446Z,99860.38
2018-08-09T03:34:40.650Z,99860.95
2018-08-09T03:35:11.780Z,99862.28
2018-08-09T03:35:42.951Z,99860.23
2018-08-09T03:36:14.133Z,99858.91
2018-08-09T03:36:45.319Z,99867.25
2018-08-09T03:37:16.493Z,99867.02
2018-08-09T03:37:47.670Z,99860.76
2018-08-09T03:38:18.884Z,99867.78
2018-08-09T03:38:50.011Z,99863.91
2018-08-09T03:39:21.142Z,99865.80
2018-08-09T03:39:52.268Z,99859.28
2018-08-09T03:40:23.452Z,99868.47
2018-08-09T03:40:54.720Z,99865.42
2018-08-09T03:41:25.854Z,99866.75
2018-08-09T03:41:57.048Z,99869.91
2018-08-09T03:42:28.247Z,99873.52
2018-08-09T03:42:59.441Z,99871.23
2018-08-09T03:43:30.566Z,99872.18
2018-08-09T03:44:01.692Z,99870.48
2018-08-09T03:44:32.900Z,99870.86
2018-08-09T03:45:04.042Z,99877.11
2018-08-09T03:45:35.169Z,99876.73
2018-08-09T03:46:06.369Z,99873.32
2018-08-09T03:46:37.543Z,99882.00
2018-08-09T03:47:08.679Z,99872.44
2018-08-09T03:47:39.850Z,99884.28
2018-08-09T03:48:11.045Z,99884.66
2018-08-09T03:48:42.234Z,99883.22
2018-08-09T03:49:13.408Z,99884.28
2018-08-09T03:49:44.574Z,99883.06
2018-08-09T03:50:15.807Z,99882.31
2018-08-09T03:50:46.985Z,99883.83
2018-08-09T03:51:18.164Z,99876.46
2018-08-09T03:51:49.399Z,99880.63
2018-08-09T03:52:20.632Z,99885.56
2018-08-09T03:52:51.824Z,99881.31
2018-08-09T03:53:23.043Z,99885.79
2018-08-09T03:53:54.215Z,99879.72
2018-08-09T03:54:25.447Z,99883.13
2018-08-09T03:54:56.666Z,99881.70
2018-08-09T03:55:27.902Z,99878.66
2018-08-09T03:55:59.026Z,99879.31
2018-08-09T03:56:30.207Z,99879.31
2018-08-09T03:57:01.344Z,99881.77
2018-08-09T03:57:32.520Z,99881.17
2018-08-09T03:58:03.701Z,99883.75
2018-08-09T03:58:34.929Z,99881.09
2018-08-09T03:59:06.064Z,99879.66
2018-08-09T03:59:37.334Z,99886.67
2018-08-09T04:00:08.532Z,99881.36
2018-08-09T04:00:39.661Z,99879.08
2018-08-09T04:01:10.853Z,99878.37
2018-08-09T04:01:42.029Z,99883.00
2018-08-09T04:02:13.203Z,99879.96
2018-08-09T04:02:44.384Z,99879.39
2018-08-09T04:03:15.591Z,99875.03
2018-08-09T04:03:46.827Z,99878.94
2018-08-09T04:04:17.953Z,99876.16
2018-08-09T04:04:49.170Z,99883.45
2018-08-09T04:05:20.347Z,99879.23
2018-08-09T04:05:51.585Z,99879.39
2018-08-09T04:06:22.773Z,99880.72
2018-08-09T04:06:53.957Z,99877.03
2018-08-09T04:07:25.148Z,99876.95
2018-08-09T04:07:56.371Z,99879.72
2018-08-09T04:08:27.556Z,99881.73
2018-08-09T04:08:58.771Z,99875.91
2018-08-09T04:09:30.020Z,99881.22
2018-08-09T04:10:01.188Z,99885.55
2018-08-09T04:10:32.354Z,99884.06
2018-08-09T04:11:03.488Z,99882.13
2018-08-09T04:11:34.717Z,99882.94
2018-08-09T04:12:05.988Z,99884.08
2018-08-09T04:12:37.117Z,99879.76
2018-08-09T04:13:08.298Z,99883.21
2018-08-09T04:13:39.423Z,99887.34
2018-08-09T04:14:10.634Z,99891.03
2018-08-09T04:14:41.760Z,99890.95
2018-08-09T04:15:12.910Z,99890.48
2018-08-09T04:15:44.073Z,99892.94
2018-08-09T04:16:15.258Z,99884.58
2018-08-09T04:16:46.445Z,99885.07
2018-08-09T04:17:17.634Z,99892.81
2018-08-09T04:17:48.763Z,99884.04
2018-08-09T04:18:20.011Z,99890.67
2018-08-09T04:18:51.197Z,99890.91
2018-08-09T04:19:22.396Z,99887.04
2018-08-09T04:19:53.632Z,99888.38
2018-08-09T04:20:24.851Z,99891.16
2018-08-09T04:20:56.080Z,99886.34
2018-08-09T04:21:27.243Z,99887.36
2018-08-09T04:21:58.456Z,99891.30
2018-08-09T04:22:29.656Z,99894.97
2018-08-09T04:23:00.859Z,99889.52
2018-08-09T04:23:31.991Z,99887.16
2018-08-09T04:24:03.200Z,99881.96
2018-08-09T04:24:34.339Z,99887.99
2018-08-09T04:25:05.533Z,99891.28
2018-08-09T04:25:36.663Z,99886.53
2018-08-09T04:26:07.796Z,99891.03
2018-08-09T04:26:38.963Z,99890.07
2018-08-09T04:27:10.137Z,99890.78
2018-08-09T04:27:41.309Z,99887.39
2018-08-09T04:28:12.437Z,99888.98
2018-08-09T04:28:43.558Z,99889.43
2018-08-09T04:29:14.733Z,99892.75
2018-08-09T04:29:45.906Z,99890.30
2018-08-09T04:30:17.087Z,99887.63
2018-08-09T04:30:48.259Z,99889.94
2018-08-09T04:31:19.467Z,99889.80
2018-08-09T04:31:50.589Z,99889.67
2018-08-09T04:32:21.736Z,99886.44
2018-08-09T04:32:52.970Z,99890.62
2018-08-09T04:33:24.100Z,99888.96
2018-08-09T04:33:55.223Z,99891.30
2018-08-09T04:34:26.408Z,99895.03
2018-08-09T04:34:57.692Z,99895.19
2018-08-09T04:35:28.919Z,99894.48
2018-08-09T04:36:00.056Z,99899.90
2018-08-09T04:36:31.236Z,99887.35
2018-08-09T04:37:02.366Z,99893.42
2018-08-09T04:37:33.502Z,99895.36
2018-08-09T04:38:04.698Z,99894.63
2018-08-09T04:38:35.984Z,99895.33
2018-08-09T04:39:07.133Z,99889.83
2018-08-09T04:39:38.388Z,99891.16
2018-08-09T04:40:09.532Z,99896.38
2018-08-09T04:40:40.768Z,99891.08
2018-08-09T04:41:11.956Z,99881.42
2018-08-09T04:41:43.148Z,99893.55
2018-08-09T04:42:14.288Z,99893.59
2018-08-09T04:42:45.495Z,99894.53
2018-08-09T04:43:16.635Z,99897.62
2018-08-09T04:43:47.889Z,99892.46
2018-08-09T04:44:19.024Z,99891.67
2018-08-09T04:44:50.174Z,99889.61
2018-08-09T04:45:21.424Z,99889.56
2018-08-09T04:45:52.575Z,99893.95
2018-08-09T04:46:23.704Z,99889.45
2018-08-09T04:46:54.948Z,99890.16
2018-08-09T04:47:26.201Z,99891.02
2018-08-09T04:47:57.372Z,99898.67
2018-08-09T04:48:28.552Z,99893.38
2018-08-09T04:48:59.739Z,99896.42
2018-08-09T04:49:30.857Z,99895.39
2018-08-09T04:50:02.032Z,99902.45
2018-08-09T04:50:33.209Z,99894.44
2018-08-09T04:51:04.340Z,99895.19
2018-08-09T04:51:35.511Z,99900.36
2018-08-09T04:52:06.703Z,99904.50
2018-08-09T04:52:38.102Z,99906.91
2018-08-09T04:53:09.232Z,99906.33
2018-08-09T04:53:40.415Z,99903.19
2018-08-09T04:54:11.604Z,99903.19
2018-08-09T04:54:42.730Z,99901.54
2018-08-09T04:55:13.850Z,99905.67
2018-08-09T04:55:45.038Z,99902.13
2018-08-09T04:56:16.169Z,99907.69
2018-08-09T04:56:47.392Z,99908.16
2018-08-09T04:57:18.635Z,99905.16
2018-08-09T04:57:49.768Z,99903.53
2018-08-09T04:58:20.960Z,99907.56
2018-08-09T04:58:52.089Z,99903.99
2018-08-09T04:59:23.284Z,99909.22
2018-08-09T04:59:54.573Z,99904.36
2018-08-09T05:00:25.804Z,99903.17
2018-08-09T05:00:57.001Z,99903.36
2018-08-09T05:01:28.124Z,99909.55
2018-08-09T05:01:59.254Z,99909.20
2018-08-09T05:02:30.438Z,99908.33
2018-08-09T05:03:01.637Z,99911.36
2018-08-09T05:03:32.827Z,99910.40
2018-08-09T05:04:04.060Z,99906.05
2018-08-09T05:04:35.203Z,99909.80
2018-08-09T05:05:06.381Z,99913.32
2018-08-09T05:05:37.572Z,99912.79
2018-08-09T05:06:08.763Z,99910.77
2018-08-09T05:06:39.937Z,99913.03
2018-08-09T05:07:11.132Z,99911.02
2018-08-09T05:07:42.330Z,99915.36
2018-08-09T05:08:13.465Z,99913.40
2018-08-09T05:08:44.596Z,99912.11
2018-08-09T05:09:15.713Z,99919.19
2018-08-09T05:09:46.836Z,99910.70
2018-08-09T05:10:18.440Z,99914.55
2018-08-09T05:10:49.595Z,99907.23
2018-08-09T05:11:20.766Z,99915.91
2018-08-09T05:11:51.935Z,99916.48
2018-08-09T05:12:23.059Z,99918.36
2018-08-09T05:12:54.241Z,99915.58
2018-08-09T05:13:25.481Z,99918.41
2018-08-09T05:13:56.681Z,99921.90
2018-08-09T05:14:27.872Z,99920.46
2018-08-09T05:14:59.004Z,99917.81
2018-08-09T05:15:30.166Z,99919.72
2018-08-09T05:16:01.466Z,99916.02
2018-08-09T05:16:32.557Z,99914.70
2018-08-09T05:17:03.756Z,99918.76
2018-08-09T05:17:34.905Z,99913.70
2018-08-09T05:18:06.045Z,99910.50
2018-08-09T05:18:37.247Z,99922.27
2018-08-09T05:19:08.415Z,99923.60
2018-08-09T05:19:39.543Z,99923.22
2018-08-09T05:20:10.704Z,99919.73
2018-08-09T05:20:41.896Z,99917.24
2018-08-09T05:21:13.080Z,99924.94
2018-08-09T05:21:44.337Z,99920.23
2018-08-09T05:22:15.502Z,99924.48
2018-08-09T05:22:46.694Z,99927.33
2018-08-09T05:23:17.815Z,99926.11
2018-08-09T05:23:49.030Z,99920.86
2018-08-09T05:24:20.152Z,99924.30
2018-08-09T05:24:51.359Z,99927.03
2018-08-09T05:25:22.583Z,99927.50
2018-08-09T05:25:53.758Z,99925.99
2018-08-09T05:26:25.045Z,99920.46
2018-08-09T05:26:56.264Z,99928.05
2018-08-09T05:27:27.410Z,99931.81
2018-08-09T05:27:58.578Z,99937.06
2018-08-09T05:28:29.720Z,99927.91
2018-08-09T05:29:00.890Z,99926.45
2018-08-09T05:29:32.089Z,99926.48
2018-08-09T05:30:03.208Z,99926.16
2018-08-09T05:30:34.369Z,99933.94
2018-08-09T05:31:05.594Z,99937.27
2018-08-09T05:31:36.763Z,99937.72
2018-08-09T05:32:07.881Z,99912.55
2018-08-09T05:32:39.000Z,99936.67
2018-08-09T05:33:10.124Z,99940.48
2018-08-09T05:33:41.317Z,99936.50
2018-08-09T05:34:12.519Z,99933.37
2018-08-09T05:34:43.692Z,99934.75
2018-08-09T05:35:14.901Z,99935.84
2018-08-09T05:35:46.090Z,99939.69
2018-08-09T05:36:17.229Z,99938.50
2018-08-09T05:36:48.477Z,99932.09
2018-08-09T05:37:19.661Z,99938.72
2018-08-09T05:37:50.911Z,99937.77
2018-08-09T05:38:22.069Z,99936.03
2018-08-09T05:38:53.249Z,99936.84
2018-08-09T05:39:24.452Z,99935.57
2018-08-09T05:39:55.579Z,99937.91
2018-08-09T05:40:26.804Z,99938.79
2018-08-09T05:40:57.931Z,99930.42
2018-08-09T05:41:29.137Z,99937.97
2018-08-09T05:42:00.285Z,99932.53
2018-08-09T05:42:31.518Z,99941.78
2018-08-09T05:43:02.692Z,99938.03
2018-08-09T05:43:33.822Z,99934.27
2018-08-09T05:44:05.004Z,99934.70
2018-08-09T05:44:36.217Z,99937.66
2018-08-09T05:45:07.477Z,99947.09
2018-08-09T05:45:38.722Z,99938.73
2018-08-09T05:46:09.918Z,99946.78
2018-08-09T05:46:41.047Z,99942.10
2018-08-09T05:47:12.184Z,99947.28
2018-08-09T05:47:43.349Z,99947.25
2018-08-09T05:48:14.473Z,99945.46
2018-08-09T05:48:45.649Z,99946.30
2018-08-09T05:49:16.836Z,99950.23
2018-08-09T05:49:48.019Z,99951.26
2018-08-09T05:50:19.191Z,99946.36
2018-08-09T05:50:50.417Z,99949.40
2018-08-09T05:51:21.547Z,99947.19
2018-08-09T05:51:52.749Z,99944.88
2018-08-09T05:52:23.964Z,99948.67
2018-08-09T05:52:55.214Z,99951.08
2018-08-09T05:53:26.564Z,99954.25
2018-08-09T05:53:57.975Z,99950.30
2018-08-09T05:54:29.182Z,99949.87
2018-08-09T05:55:00.365Z,99950.38
2018-08-09T05:55:31.541Z,99947.77
2018-08-09T05:56:02.737Z,99952.91
2018-08-09T05:56:33.892Z,99947.97
2018-08-09T05:57:05.042Z,99953.30
2018-08-09T05:57:36.191Z,99951.33
2018-08-09T05:58:07.385Z,99953.26
2018-08-09T05:58:38.567Z,99955.19
2018-08-09T05:59:09.755Z,99960.48
2018-08-09T05:59:40.902Z,99962.30
2018-08-09T06:00:12.042Z,99959.09
2018-08-09T06:00:43.257Z,99949.34
2018-08-09T06:01:14.522Z,99958.08
2018-08-09T06:01:45.715Z,99955.59
2018-08-09T06:02:16.918Z,99950.09
2018-08-09T06:02:48.115Z,99956.55
2018-08-09T06:03:19.325Z,99958.67
2018-08-09T06:03:50.459Z,99951.91
2018-08-09T06:04:21.601Z,99952.47
2018-08-09T06:04:52.823Z,99957.48
2018-08-09T06:05:24.016Z,99957.62
2018-08-09T06:05:55.137Z,99957.88